Time;durP1;ratioP1;P1;durP2;ratioP2;P2;SDS_P1;SDS_P2;PMS_P1;PMS_P2;Temp;Humidity;BMP_temperature;BMP_pressure;BME280_temperature;BME280_humidity;BME280_pressure;Samples;Min_cycle;Max_cycle;Signal;HPM_P1;HPM_P2
2022/08/29 00:01:07;;;;;;;11.25;3.88;;;;;;;12.89;88.04;102198.06;5073414;28;20074;-80
2022/08/29 00:03:33;;;;;;;11.05;4.13;;;;;;;12.87;88.36;102192.94;5073418;28;20468;-81
2022/08/29 00:05:59;;;;;;;11.35;4.05;;;;;;;12.77;88.94;102183.09;5072804;28;20044;-77
2022/08/29 00:08:24;;;;;;;10.65;3.45;;;;;;;12.73;88.34;102182.44;5073531;28;20115;-77
2022/08/29 00:10:50;;;;;;;10.88;4.00;;;;;;;12.72;88.77;102191.13;5073282;28;20033;-77
2022/08/29 00:13:15;;;;;;;9.13;3.90;;;;;;;12.56;88.76;102172.91;5073175;28;20029;-82
2022/08/29 00:15:41;;;;;;;9.25;3.80;;;;;;;12.46;88.92;102163.91;5073229;28;20029;-81
2022/08/29 00:18:07;;;;;;;10.48;4.20;;;;;;;12.61;88.77;102196.84;5072946;28;20020;-81
2022/08/29 00:20:34;;;;;;;9.35;3.95;;;;;;;12.42;89.13;102171.91;5073479;28;20066;-80
2022/08/29 00:23:00;;;;;;;11.93;4.68;;;;;;;12.46;89.26;102192.41;5073007;28;20029;-77
2022/08/29 00:25:26;;;;;;;12.73;4.65;;;;;;;12.42;89.49;102188.31;5073037;28;20093;-80
2022/08/29 00:27:51;;;;;;;8.98;4.05;;;;;;;12.39;89.26;102193.66;5072845;28;20024;-81
2022/08/29 00:30:18;;;;;;;11.70;3.95;;;;;;;12.34;89.51;102193.00;5072988;28;20032;-78
2022/08/29 00:32:44;;;;;;;13.30;5.00;;;;;;;12.26;89.57;102189.94;5072932;28;20020;-77
2022/08/29 00:35:13;;;;;;;10.07;4.28;;;;;;;12.05;89.75;102174.53;5072889;28;20039;-77
2022/08/29 00:37:40;;;;;;;8.95;3.75;;;;;;;12.17;89.74;102193.81;5072674;28;20070;-80
2022/08/29 00:40:09;;;;;;;10.55;4.10;;;;;;;12.12;89.93;102198.41;5072930;28;20029;-80
2022/08/29 00:42:34;;;;;;;10.65;4.00;;;;;;;12.04;90.35;102190.97;5072780;28;20416;-81
2022/08/29 00:45:00;;;;;;;8.82;4.07;;;;;;;11.96;90.27;102202.59;5072980;28;20032;-79
2022/08/29 00:47:32;;;;;;;10.27;4.20;;;;;;;11.96;90.56;102212.97;5072644;28;20419;-81
2022/08/29 00:50:00;;;;;;;11.15;4.28;;;;;;;11.82;90.59;102197.25;5072448;28;20061;-79
2022/08/29 00:52:43;;;;;;;10.50;4.40;;;;;;;11.88;90.94;102218.50;5054780;28;20047;-82
2022/08/29 00:55:14;;;;;;;8.68;3.88;;;;;;;11.78;90.81;102207.69;5072723;28;20544;-81
2022/08/29 00:57:45;;;;;;;8.98;3.58;;;;;;;11.79;91.09;102208.53;5072605;28;20088;-81
2022/08/29 01:00:11;;;;;;;8.57;3.78;;;;;;;11.69;90.54;102204.69;5072681;28;20013;-79
2022/08/29 01:02:39;;;;;;;9.90;3.97;;;;;;;11.66;91.21;102195.31;5072858;28;20035;-80
2022/08/29 01:05:09;;;;;;;10.13;4.22;;;;;;;11.63;91.35;102208.41;5072470;28;20472;-81
2022/08/29 01:07:35;;;;;;;8.27;4.07;;;;;;;11.59;91.14;102208.59;5072597;28;20103;-80
2022/08/29 01:10:00;;;;;;;11.35;4.40;;;;;;;11.60;91.02;102211.13;5072744;28;20024;-81
2022/08/29 01:12:26;;;;;;;12.52;3.72;;;;;;;11.55;91.03;102213.06;5072406;28;20051;-78
2022/08/29 01:14:55;;;;;;;10.68;4.00;;;;;;;11.37;91.41;102193.19;5072372;28;20032;-81
2022/08/29 01:17:24;;;;;;;9.93;4.03;;;;;;;11.28;92.10;102185.84;5072686;28;20025;-82
2022/08/29 01:20:24;;;;;;;10.23;3.85;;;;;;;11.39;92.12;102212.06;5057396;28;20441;-79
2022/08/29 01:23:01;;;;;;;9.15;4.32;;;;;;;11.33;92.36;102214.94;5076084;28;20036;-81
2022/08/29 01:25:32;;;;;;;8.60;4.00;;;;;;;11.09;92.33;102176.31;5058497;28;20036;-80
2022/08/29 01:28:17;;;;;;;9.80;4.60;;;;;;;11.24;92.09;102207.59;5076422;28;20380;-81
2022/08/29 01:31:05;;;;;;;11.07;5.00;;;;;;;11.22;92.27;102212.84;5076469;28;20024;-80
2022/08/29 01:33:47;;;;;;;10.13;4.15;;;;;;;11.17;92.09;102212.19;5076273;28;20487;-79
2022/08/29 01:36:16;;;;;;;9.38;4.40;;;;;;;11.13;92.49;102202.88;5076405;28;20444;-79
2022/08/29 01:38:41;;;;;;;12.57;4.28;;;;;;;11.11;92.42;102204.69;5076297;28;20024;-81
2022/08/29 01:41:09;;;;;;;12.50;4.68;;;;;;;11.10;92.82;102206.41;5076322;28;20025;-80
2022/08/29 01:43:43;;;;;;;9.40;4.45;;;;;;;11.12;93.32;102198.63;5076161;28;20036;-77
2022/08/29 01:46:11;;;;;;;9.30;4.32;;;;;;;11.12;92.52;102199.47;5076670;28;20033;-80
2022/08/29 01:48:38;;;;;;;10.75;5.43;;;;;;;11.08;93.12;102194.47;5075804;28;20049;-79
2022/08/29 01:51:04;;;;;;;8.07;4.60;;;;;;;11.02;92.94;102187.00;5076248;28;20055;-80
2022/08/29 01:53:29;;;;;;;11.60;5.43;;;;;;;11.03;93.31;102186.09;5076034;28;20060;-76
2022/08/29 01:55:55;;;;;;;9.88;4.78;;;;;;;11.04;93.33;102198.94;5076049;28;20536;-77
2022/08/29 01:58:21;;;;;;;10.55;5.32;;;;;;;10.84;93.11;102183.47;5075584;28;20032;-76
2022/08/29 02:00:46;;;;;;;9.57;4.80;;;;;;;10.93;93.08;102197.75;5075656;28;20024;-80
2022/08/29 02:03:11;;;;;;;10.80;5.10;;;;;;;10.82;93.47;102193.03;5075572;28;20115;-80
2022/08/29 02:05:37;;;;;;;9.60;5.15;;;;;;;10.88;93.81;102210.84;5075926;28;20056;-81
2022/08/29 02:08:02;;;;;;;11.20;5.30;;;;;;;10.76;93.52;102182.94;5075994;28;20028;-79
2022/08/29 02:10:29;;;;;;;12.43;5.00;;;;;;;10.85;93.24;102204.06;5075661;28;20533;-80
2022/08/29 02:12:54;;;;;;;10.73;5.70;;;;;;;10.80;93.70;102192.22;5075499;28;20021;-81
2022/08/29 02:15:20;;;;;;;9.90;5.00;;;;;;;10.76;93.94;102194.09;5075216;28;20384;-80
2022/08/29 02:17:46;;;;;;;11.13;4.88;;;;;;;10.78;93.59;102197.47;5075490;28;20024;-78
2022/08/29 02:20:11;;;;;;;10.07;5.15;;;;;;;10.68;93.72;102188.41;5075475;28;20052;-80
2022/08/29 02:22:38;;;;;;;8.90;4.75;;;;;;;10.57;93.47;102172.53;5075491;28;20103;-79
2022/08/29 02:25:40;;;;;;;9.13;4.80;;;;;;;10.68;93.68;102192.75;5075499;28;20024;-80
2022/08/29 02:27:51;;;;;;;9.05;5.47;;;;;;;10.69;94.07;102209.91;5074935;28;20036;-78
2022/08/29 02:30:18;;;;;;;9.18;4.57;;;;;;;10.60;93.75;102200.81;5075033;28;20078;-79
2022/08/29 02:32:43;;;;;;;12.32;5.00;;;;;;;10.61;93.97;102213.66;5075105;28;20547;-81
2022/08/29 02:35:08;;;;;;;9.38;4.97;;;;;;;10.57;93.76;102217.28;5075466;28;20044;-81
2022/08/29 02:37:34;;;;;;;11.93;5.15;;;;;;;10.55;93.85;102220.84;5075286;28;20031;-78
2022/08/29 02:39:59;;;;;;;9.60;4.90;;;;;;;10.55;94.25;102226.00;5075079;28;20119;-79
2022/08/29 02:42:24;;;;;;;11.05;4.80;;;;;;;10.57;94.21;102226.78;5075107;28;20029;-79
2022/08/29 02:44:50;;;;;;;9.07;5.00;;;;;;;10.60;94.38;102224.88;5074844;28;20021;-78
2022/08/29 02:47:15;;;;;;;10.25;4.88;;;;;;;10.67;94.66;102224.66;5056907;28;20025;-79
2022/08/29 02:49:41;;;;;;;9.70;5.57;;;;;;;10.63;95.27;102223.94;5056778;28;20045;-78
2022/08/29 02:52:07;;;;;;;10.20;5.35;;;;;;;10.63;95.22;102229.94;5075051;28;20025;-80
2022/08/29 02:54:33;;;;;;;10.40;5.30;;;;;;;10.55;95.31;102206.16;5074860;28;20016;-81
2022/08/29 02:56:59;;;;;;;9.38;5.10;;;;;;;10.50;95.45;102200.34;5074727;28;20098;-80
2022/08/29 02:59:24;;;;;;;10.45;4.95;;;;;;;10.59;95.42;102212.88;5056532;28;20460;-79
2022/08/29 03:01:49;;;;;;;11.35;5.05;;;;;;;10.59;95.13;102222.38;5074734;28;20020;-78
2022/08/29 03:04:15;;;;;;;12.23;5.43;;;;;;;10.46;95.17;102198.78;5074740;28;20420;-78
2022/08/29 03:06:40;;;;;;;8.88;4.75;;;;;;;10.66;95.36;102235.88;5074758;28;20032;-78
2022/08/29 03:09:05;;;;;;;10.73;5.20;;;;;;;10.31;95.31;102174.41;5074761;28;20029;-80
2022/08/29 03:11:30;;;;;;;10.23;5.50;;;;;;;10.66;95.35;102220.38;5074296;28;20024;-78
2022/08/29 03:13:56;;;;;;;11.45;5.35;;;;;;;10.60;95.21;102214.56;5074165;28;20308;-81
2022/08/29 03:16:21;;;;;;;11.18;5.72;;;;;;;10.63;95.82;102222.19;5074402;28;20119;-82
2022/08/29 03:18:46;;;;;;;11.07;5.07;;;;;;;10.63;95.50;102221.38;5074324;28;20050;-81
2022/08/29 03:21:20;;;;;;;11.85;5.60;;;;;;;10.59;95.40;102214.63;5074359;28;20032;-80
2022/08/29 03:23:48;;;;;;;11.70;5.15;;;;;;;10.45;95.33;102199.69;5074212;28;20456;-79
2022/08/29 03:26:13;;;;;;;11.30;5.32;;;;;;;10.54;95.19;102212.25;5074243;28;20392;-80
2022/08/29 03:28:39;;;;;;;9.90;4.57;;;;;;;10.44;95.25;102203.19;5074150;28;20028;-78
2022/08/29 03:31:05;;;;;;;10.40;4.95;;;;;;;10.26;95.32;102175.53;5074107;28;20027;-78
2022/08/29 03:33:30;;;;;;;8.75;5.22;;;;;;;10.48;95.56;102217.66;5056021;28;20025;-79
2022/08/29 03:35:56;;;;;;;12.35;4.93;;;;;;;10.43;95.54;102211.00;5074307;28;20029;-79
2022/08/29 03:38:21;;;;;;;10.85;5.40;;;;;;;10.40;95.79;102209.34;5073831;28;20464;-79
2022/08/29 03:40:47;;;;;;;9.98;4.97;;;;;;;10.40;96.00;102211.09;5073817;28;20059;-80
2022/08/29 03:43:12;;;;;;;14.75;5.32;;;;;;;10.35;96.15;102195.81;5073895;28;20082;-78
2022/08/29 03:45:37;;;;;;;11.25;5.10;;;;;;;10.38;96.58;102208.59;5073754;28;20028;-78
2022/08/29 03:48:03;;;;;;;11.00;5.70;;;;;;;10.36;96.80;102205.22;5073749;28;20041;-77
2022/08/29 03:50:28;;;;;;;10.27;5.47;;;;;;;10.37;96.43;102200.91;5073755;28;20054;-77
2022/08/29 03:52:54;;;;;;;11.80;5.88;;;;;;;10.28;96.38;102187.47;5073733;28;20083;-81
2022/08/29 03:55:19;;;;;;;11.35;6.15;;;;;;;10.29;96.71;102185.72;5073455;28;20519;-81
2022/08/29 03:57:45;;;;;;;10.98;6.00;;;;;;;10.31;96.91;102192.50;5055269;28;20037;-76
2022/08/29 04:00:15;;;;;;;14.18;6.40;;;;;;;10.24;97.28;102174.75;5073445;28;20025;-81
2022/08/29 04:02:41;;;;;;;13.00;6.68;;;;;;;10.12;96.94;102162.28;5073513;28;20028;-78
2022/08/29 04:05:07;;;;;;;10.52;5.95;;;;;;;10.20;96.55;102186.03;5073342;28;20025;-77
2022/08/29 04:07:48;;;;;;;10.80;6.55;;;;;;;10.10;96.63;102171.81;5073605;28;20040;-78
2022/08/29 04:10:18;;;;;;;9.57;5.85;;;;;;;10.04;96.87;102163.44;5073258;28;20021;-80
2022/08/29 04:12:43;;;;;;;10.60;5.43;;;;;;;9.99;96.49;102167.09;5055592;28;20169;-78
2022/08/29 04:15:09;;;;;;;13.88;6.88;;;;;;;10.09;96.65;102180.47;5073019;28;20119;-78
2022/08/29 04:17:35;;;;;;;12.23;5.60;;;;;;;10.04;96.22;102188.41;5073207;28;20035;-77
2022/08/29 04:20:01;;;;;;;11.75;6.30;;;;;;;10.01;96.38;102188.50;5073108;28;20032;-78
2022/08/29 04:22:26;;;;;;;9.27;5.88;;;;;;;9.90;96.11;102182.94;5072895;28;20456;-78
2022/08/29 04:24:52;;;;;;;11.98;6.22;;;;;;;9.86;96.19;102183.94;5073234;28;20111;-78
2022/08/29 04:27:17;;;;;;;10.90;6.05;;;;;;;9.88;96.12;102198.47;5072958;28;20020;-78
2022/08/29 04:29:43;;;;;;;10.95;6.68;;;;;;;9.86;96.32;102189.13;5072939;28;20028;-78
2022/08/29 04:32:08;;;;;;;12.02;6.22;;;;;;;9.82;96.39;102185.78;5073017;28;20013;-78
2022/08/29 04:34:33;;;;;;;11.40;7.03;;;;;;;9.75;96.46;102180.03;5072681;28;20028;-78
2022/08/29 04:36:59;;;;;;;10.57;6.47;;;;;;;9.79;96.53;102191.06;5073129;28;20074;-79
2022/08/29 04:39:24;;;;;;;12.65;6.10;;;;;;;9.65;96.34;102164.97;5072925;28;20052;-80
2022/08/29 04:41:49;;;;;;;15.45;6.68;;;;;;;9.78;96.31;102197.13;5072895;28;20066;-78
2022/08/29 04:44:15;;;;;;;14.38;6.18;;;;;;;9.72;96.84;102184.47;5072933;28;20078;-79
2022/08/29 04:46:40;;;;;;;11.95;6.38;;;;;;;9.71;96.52;102191.34;5072664;28;20447;-77
2022/08/29 04:49:06;;;;;;;13.73;6.80;;;;;;;9.79;97.41;102203.97;5072404;28;20128;-78
2022/08/29 04:51:34;;;;;;;13.15;6.75;;;;;;;9.67;97.10;102191.53;5072879;28;20028;-78
2022/08/29 04:53:59;;;;;;;11.80;6.72;;;;;;;9.76;97.25;102204.09;5071855;28;20024;-78
2022/08/29 04:56:25;;;;;;;14.70;7.97;;;;;;;9.72;97.87;102194.78;5072851;28;20453;-78
2022/08/29 04:58:50;;;;;;;12.48;7.43;;;;;;;9.70;97.65;102194.00;5072720;28;20055;-78
2022/08/29 05:01:20;;;;;;;14.85;7.60;;;;;;;9.67;97.63;102194.97;5072573;28;20028;-78
2022/08/29 05:03:47;;;;;;;13.48;7.82;;;;;;;9.78;97.53;102208.28;5072358;28;20024;-78
2022/08/29 05:06:15;;;;;;;14.38;7.50;;;;;;;9.88;97.73;102210.53;5072707;28;20032;-79
2022/08/29 05:08:41;;;;;;;20.02;7.78;;;;;;;9.80;98.19;102191.91;5072517;28;20025;-78
2022/08/29 05:11:17;;;;;;;13.27;7.90;;;;;;;9.98;98.00;102219.59;5072634;28;20033;-78
2022/08/29 05:13:43;;;;;;;15.57;8.15;;;;;;;10.01;98.40;102199.66;5072576;28;20025;-78
2022/08/29 05:16:10;;;;;;;15.82;8.38;;;;;;;10.03;98.19;102186.72;5072424;28;20039;-79
2022/08/29 05:18:35;;;;;;;15.85;7.43;;;;;;;10.15;98.25;102190.56;5072288;28;20051;-80
2022/08/29 05:21:02;;;;;;;15.10;7.63;;;;;;;10.02;97.96;102154.88;5072395;28;20480;-79
2022/08/29 05:23:27;;;;;;;15.30;7.80;;;;;;;10.43;98.14;102205.84;5072462;28;20460;-79
2022/08/29 05:25:58;;;;;;;14.13;8.25;;;;;;;10.61;98.04;102223.97;5072499;28;20066;-79
2022/08/29 05:28:28;;;;;;;14.25;8.00;;;;;;;10.50;98.23;102181.41;5072297;28;20480;-77
2022/08/29 05:30:54;;;;;;;15.35;8.30;;;;;;;10.80;97.92;102223.22;5072118;28;20024;-82
2022/08/29 05:33:20;;;;;;;11.88;6.82;;;;;;;10.82;97.27;102235.22;5072076;28;20114;-81
2022/08/29 05:35:45;;;;;;;14.77;8.02;;;;;;;10.95;97.11;102238.13;5072249;28;20115;-81
2022/08/29 05:38:11;;;;;;;15.98;8.68;;;;;;;11.03;96.98;102230.88;5072369;28;20032;-80
2022/08/29 05:40:37;;;;;;;16.80;8.30;;;;;;;10.86;96.85;102186.81;5072407;28;20055;-80
2022/08/29 05:43:03;;;;;;;13.13;7.93;;;;;;;11.20;96.49;102236.16;5072334;28;20028;-81
2022/08/29 05:45:28;;;;;;;17.55;8.93;;;;;;;11.05;96.14;102185.13;5072107;28;20522;-80
2022/08/29 05:47:55;;;;;;;18.40;8.48;;;;;;;11.04;96.17;102157.59;5071964;28;20028;-81
2022/08/29 05:50:21;;;;;;;17.48;8.82;;;;;;;11.16;96.03;102151.88;5071647;28;20044;-81
2022/08/29 05:52:47;;;;;;;15.75;8.25;;;;;;;11.24;95.75;102142.94;5071849;28;20468;-79
2022/08/29 05:55:12;;;;;;;16.52;8.40;;;;;;;11.26;95.84;102123.03;5072222;28;20028;-81
2022/08/29 05:57:37;;;;;;;16.65;9.20;;;;;;;12.07;95.15;102221.06;5072348;28;20048;-82
2022/08/29 06:00:07;;;;;;;14.80;8.57;;;;;;;12.66;93.76;102235.47;5071978;28;20531;-80
2022/08/29 06:02:33;;;;;;;14.98;8.05;;;;;;;12.98;90.57;102150.06;5053873;28;20017;-81
2022/08/29 06:04:58;;;;;;;14.90;8.48;;;;;;;14.24;86.64;102222.84;5055350;28;20051;-79
2022/08/29 06:07:23;;;;;;;14.73;7.88;;;;;;;15.03;82.35;102223.47;5075835;28;20085;-78
2022/08/29 06:09:51;;;;;;;16.45;8.07;;;;;;;15.46;78.55;102213.94;5075652;28;20028;-81
2022/08/29 06:12:17;;;;;;;14.57;8.15;;;;;;;15.55;79.12;102235.13;5075800;28;20028;-80
2022/08/29 06:14:42;;;;;;;13.32;7.35;;;;;;;15.71;76.83;102235.88;5075420;28;20085;-81
2022/08/29 06:17:09;;;;;;;15.13;8.18;;;;;;;15.93;75.56;102240.59;5057598;28;20123;-81
2022/08/29 06:19:34;;;;;;;12.82;7.43;;;;;;;15.82;75.72;102237.78;5057620;28;20495;-84
2022/08/29 06:22:02;;;;;;;16.42;7.43;;;;;;;15.42;76.43;102199.41;5074228;28;20123;-82
2022/08/29 06:24:28;;;;;;;14.90;7.45;;;;;;;15.43;78.07;102245.34;5076213;28;20115;-81
2022/08/29 06:26:54;;;;;;;15.32;7.75;;;;;;;14.89;78.41;102189.66;5057707;28;20110;-82
2022/08/29 06:30:03;;;;;;;18.70;8.63;;;;;;;15.00;79.47;102244.47;5056734;28;20091;-83
2022/08/29 06:32:47;;;;;;;19.20;9.00;;;;;;;14.43;81.25;102184.50;5013098;28;20044;-81
2022/08/29 06:35:22;;;;;;;16.42;8.65;;;;;;;13.61;80.69;102067.13;5013236;28;20042;-83
2022/08/29 06:38:05;;;;;;;15.35;8.20;;;;;;;14.18;81.92;102174.69;5013112;28;20080;-86
2022/08/29 06:40:42;;;;;;;15.30;8.25;;;;;;;14.14;81.46;102178.38;5013001;28;20041;-84
2022/08/29 06:43:10;;;;;;;18.05;9.07;;;;;;;13.48;81.03;102077.38;5013434;28;20454;-86
2022/08/29 06:45:47;;;;;;;15.00;7.55;;;;;;;14.45;83.50;102190.47;5013398;28;20432;-77
2022/08/29 06:48:12;;;;;;;12.00;5.63;;;;;;;14.90;85.00;102197.38;5012849;28;20533;-84
2022/08/29 06:50:39;;;;;;;15.13;7.35;;;;;;;15.43;82.14;102254.91;5013464;28;20061;-84
2022/08/29 06:53:06;;;;;;;17.98;8.00;;;;;;;15.51;79.43;102244.88;5012832;28;20041;-76
2022/08/29 06:55:33;;;;;;;11.75;5.93;;;;;;;16.03;80.95;102265.13;5012814;28;20041;-85
2022/08/29 06:57:59;;;;;;;13.68;6.32;;;;;;;16.32;80.39;102269.31;5012943;28;20084;-84
2022/08/29 07:00:24;;;;;;;16.52;7.72;;;;;;;16.28;77.13;102235.72;5012922;28;20439;-75
2022/08/29 07:02:50;;;;;;;14.75;7.75;;;;;;;17.29;72.81;102250.72;5012632;28;20030;-81
2022/08/29 07:05:16;;;;;;;13.02;7.57;;;;;;;18.02;71.07;102265.66;5015897;28;20030;-85
2022/08/29 07:07:41;;;;;;;11.63;7.55;;;;;;;18.49;67.85;102264.84;5074386;28;20031;-86
2022/08/29 07:10:11;;;;;;;14.73;8.00;;;;;;;18.70;66.78;102266.84;5056334;28;20039;-77
2022/08/29 07:12:36;;;;;;;14.13;7.40;;;;;;;18.51;67.75;102268.16;5073808;28;20031;-85
2022/08/29 07:15:02;;;;;;;14.95;7.95;;;;;;;18.43;67.53;102265.28;5074013;28;20032;-84
2022/08/29 07:17:28;;;;;;;13.02;7.38;;;;;;;18.36;67.27;102256.19;5072889;28;20051;-80
2022/08/29 07:19:54;;;;;;;13.60;6.45;;;;;;;18.42;66.66;102260.16;5073938;28;20016;-80
2022/08/29 07:22:19;;;;;;;18.05;7.47;;;;;;;18.51;67.18;102270.78;5073801;28;20035;-81
2022/08/29 07:24:45;;;;;;;12.32;6.57;;;;;;;18.61;66.37;102265.69;5055671;28;20042;-85
2022/08/29 07:27:11;;;;;;;18.65;8.45;;;;;;;18.55;65.35;102261.75;5055917;28;20094;-83
2022/08/29 07:29:37;;;;;;;11.68;6.40;;;;;;;18.42;68.07;102232.22;5073691;28;20035;-85
2022/08/29 07:32:04;;;;;;;14.77;8.25;;;;;;;18.50;65.95;102261.28;5073640;28;20043;-86
2022/08/29 07:34:29;;;;;;;16.75;8.20;;;;;;;18.40;65.77;102243.75;5073276;28;20115;-86
2022/08/29 07:36:54;;;;;;;15.88;7.90;;;;;;;18.23;66.01;102219.66;5073733;28;20103;-78
2022/08/29 07:39:21;;;;;;;15.05;7.47;;;;;;;18.40;67.55;102247.19;5073785;28;20415;-89
2022/08/29 07:41:47;;;;;;;14.95;7.43;;;;;;;18.47;66.25;102265.88;5055494;28;20021;-86
2022/08/29 07:44:14;;;;;;;14.70;6.82;;;;;;;18.26;65.11;102232.50;5073763;28;20048;-87
2022/08/29 07:46:43;;;;;;;15.93;6.50;;;;;;;18.54;65.97;102260.06;5056036;28;20024;-82
2022/08/29 07:49:10;;;;;;;14.95;7.78;;;;;;;18.67;65.51;102253.97;5073690;28;20434;-83
2022/08/29 07:51:38;;;;;;;15.02;7.18;;;;;;;18.88;65.23;102252.38;5055109;28;20036;-86
2022/08/29 08:07:33;;;;;;;14.95;8.75;;;;;;;18.26;62.49;102098.31;5054043;28;20613;-83
2022/08/29 08:10:11;;;;;;;13.95;8.00;;;;;;;19.35;62.49;102247.88;5053746;28;20053;-85
2022/08/29 08:13:22;;;;;;;15.15;6.80;;;;;;;19.48;61.51;102246.81;5053274;28;20384;-85
2022/08/29 08:15:47;;;;;;;15.25;7.45;;;;;;;18.42;60.38;102093.59;5005614;28;20037;-85
2022/08/29 08:19:01;;;;;;;15.20;7.05;;;;;;;19.51;62.28;102252.78;5052651;28;20350;-85
2022/08/29 08:21:26;;;;;;;12.95;6.85;;;;;;;18.90;61.17;102135.31;5052959;28;20388;-85
2022/08/29 08:23:52;;;;;;;16.75;7.28;;;;;;;19.77;60.32;102262.09;5052969;28;20021;-86
2022/08/29 08:26:21;;;;;;;16.75;7.28;;;;;;;19.23;60.51;102151.94;5052955;28;20036;-86
2022/08/29 08:28:47;;;;;;;12.88;7.47;;;;;;;19.46;58.90;102191.06;5052823;28;20025;-85
2022/08/29 08:31:13;;;;;;;14.20;7.55;;;;;;;19.13;60.31;102120.41;5053069;28;20035;-84
2022/08/29 08:33:39;;;;;;;16.15;8.52;;;;;;;19.69;59.86;102206.81;5052650;28;20106;-85
2022/08/29 08:36:27;;;;;;;13.05;7.00;;;;;;;20.09;60.60;102259.50;5052603;28;20033;-85
2022/08/29 08:38:58;;;;;;;16.52;8.52;;;;;;;19.96;60.48;102259.66;5052859;28;20029;-82
2022/08/29 08:41:26;;;;;;;13.45;6.97;;;;;;;19.92;61.98;102262.63;5052901;28;20029;-84
2022/08/29 08:44:01;;;;;;;14.23;8.50;;;;;;;19.58;60.20;102225.19;5052767;28;20057;-83
2022/08/29 08:46:37;;;;;;;13.63;7.65;;;;;;;19.86;62.94;102265.72;5034906;28;20063;-87
2022/08/29 08:49:16;;;;;;;14.98;7.80;;;;;;;19.82;63.77;102252.06;5034640;28;20056;-83
2022/08/29 08:51:46;;;;;;;16.55;7.50;;;;;;;19.90;60.10;102270.63;5053325;28;20107;-81
2022/08/29 08:54:22;;;;;;;14.68;6.32;;;;;;;20.09;63.56;102259.50;5052661;28;20017;-84
2022/08/29 09:00:11;;;;;;;;;;;;;;;20.87;62.06;102245.22;5053252;28;20093;-82
2022/08/29 09:02:48;;;;;;;13.45;6.30;;;;;;;21.10;57.14;102251.97;5052388;28;19913;-82
2022/08/29 09:05:50;;;;;;;15.52;7.32;;;;;;;20.97;57.30;102248.75;5052342;28;20481;-83
2022/08/29 09:08:44;;;;;;;13.00;6.18;;;;;;;20.94;54.27;102256.03;5034493;28;20025;-81
2022/08/29 09:11:35;;;;;;;13.52;6.22;;;;;;;20.76;55.84;102256.63;5052597;28;20041;-78
2022/08/29 09:14:03;;;;;;;;;;;;;;;20.85;58.04;102258.50;5052685;28;20025;-78
2022/08/29 09:16:35;;;;;;;15.20;5.25;;;;;;;20.72;52.53;102263.06;5052106;28;19913;-79
2022/08/29 09:19:04;;;;;;;10.90;4.47;;;;;;;20.37;52.42;102236.28;5052196;28;20099;-78
2022/08/29 09:21:40;;;;;;;16.38;4.07;;;;;;;20.24;50.94;102250.38;5052324;28;20388;-77
2022/08/29 09:24:09;;;;;;;7.95;3.67;;;;;;;20.25;52.45;102259.91;5034187;28;20091;-79
2022/08/29 09:26:35;;;;;;;12.75;4.43;;;;;;;20.38;51.78;102258.94;5052090;28;20431;-79
2022/08/29 09:29:00;;;;;;;9.93;4.75;;;;;;;20.40;52.73;102251.75;5052267;28;20100;-79
2022/08/29 09:31:32;;;;;;;9.35;4.28;;;;;;;20.25;49.93;102264.31;5052260;28;20114;-79
2022/08/29 09:34:04;;;;;;;10.45;4.68;;;;;;;20.19;51.43;102236.81;5052437;28;20045;-78
2022/08/29 09:36:51;;;;;;;10.95;4.57;;;;;;;20.19;52.68;102242.06;5051991;28;20033;-76
2022/08/29 09:39:19;;;;;;;10.93;4.47;;;;;;;20.39;51.46;102271.94;5052473;28;20024;-79
2022/08/29 09:41:53;;;;;;;10.52;4.68;;;;;;;20.41;52.24;102264.75;5056241;28;20029;-77
2022/08/29 09:44:26;;;;;;;11.65;4.82;;;;;;;20.36;49.64;102245.94;5038072;28;20472;-73
2022/08/29 09:47:06;;;;;;;11.85;4.13;;;;;;;20.43;49.84;102255.00;5055845;28;20029;-78
2022/08/29 09:49:33;;;;;;;16.42;5.35;;;;;;;20.14;48.62;102248.63;5055687;28;20346;-80
2022/08/29 09:52:23;;;;;;;11.60;4.35;;;;;;;20.07;50.49;102255.34;5056073;28;20025;-79
2022/08/29 09:54:49;;;;;;;11.95;4.47;;;;;;;20.14;49.92;102270.44;5055805;28;20461;-72
2022/08/29 09:57:17;;;;;;;17.15;4.15;;;;;;;20.40;48.65;102270.13;5055659;28;20120;-78
2022/08/29 09:59:45;;;;;;;13.07;4.75;;;;;;;20.44;49.35;102274.19;5056036;28;20063;-76
2022/08/29 10:02:16;;;;;;;12.48;4.38;;;;;;;20.34;48.02;102260.94;5055696;28;20021;-78
2022/08/29 10:04:44;;;;;;;9.48;4.32;;;;;;;20.13;48.23;102265.31;5055764;28;20025;-74
2022/08/29 10:07:16;;;;;;;12.52;4.30;;;;;;;19.95;49.23;102251.91;5055791;28;20025;-81
2022/08/29 10:09:52;;;;;;;12.85;4.53;;;;;;;20.04;50.65;102266.91;5055638;28;20032;-76
2022/08/29 10:12:25;;;;;;;8.82;3.92;;;;;;;19.79;49.93;102239.19;5036882;28;20040;-75
2022/08/29 10:14:57;;;;;;;15.63;4.57;;;;;;;19.94;49.79;102258.09;5055461;28;20043;-74
2022/08/29 10:18:34;;;;;;;11.23;4.20;;;;;;;19.84;49.74;102244.91;5055548;28;20484;-74
2022/08/29 10:21:11;;;;;;;11.20;3.95;;;;;;;19.95;50.71;102260.59;4990295;28;20049;-74
2022/08/29 10:23:48;;;;;;;13.82;4.55;;;;;;;20.00;49.66;102257.63;4955103;29;20062;-74
2022/08/29 10:26:40;;;;;;;10.50;4.60;;;;;;;20.09;50.37;102253.44;4955124;29;20035;-74
2022/08/29 10:29:25;;;;;;;10.85;4.13;;;;;;;20.05;51.14;102260.69;4955102;29;20098;-75
2022/08/29 10:32:28;;;;;;;13.27;5.30;;;;;;;20.08;50.50;102270.97;4955008;29;20027;-81
2022/08/29 10:35:06;;;;;;;12.93;4.80;;;;;;;19.89;49.59;102260.28;4955073;29;20477;-74
2022/08/29 10:37:41;;;;;;;11.63;4.40;;;;;;;19.90;49.43;102259.31;4954803;29;20547;-79
2022/08/29 10:40:29;;;;;;;13.93;4.93;;;;;;;19.98;50.85;102262.16;4954574;29;20035;-75
2022/08/29 10:43:14;;;;;;;11.95;4.97;;;;;;;19.84;50.36;102259.78;4955049;29;20387;-75
2022/08/29 10:46:02;;;;;;;12.30;5.25;;;;;;;19.74;50.43;102257.91;4954998;29;20450;-75
2022/08/29 10:48:35;;;;;;;9.35;4.30;;;;;;;19.61;49.41;102253.75;4950420;28;20511;-74
2022/08/29 10:51:12;;;;;;;9.70;4.47;;;;;;;19.72;50.67;102256.34;4935533;29;20044;-75
2022/08/29 10:53:43;;;;;;;12.73;4.10;;;;;;;20.00;50.19;102239.25;4935355;29;20044;-75
2022/08/29 10:56:24;;;;;;;13.77;4.68;;;;;;;20.28;49.14;102236.06;4936716;29;20036;-76
2022/08/29 10:59:08;;;;;;;10.95;5.13;;;;;;;20.46;49.33;102220.66;4954656;29;20085;-76
2022/08/29 11:01:41;;;;;;;11.20;4.10;;;;;;;20.57;48.28;102217.13;5033215;28;20029;-87
2022/08/29 11:04:21;;;;;;;16.95;5.07;;;;;;;20.46;48.26;102204.06;5035063;28;20056;-88
2022/08/29 11:07:01;;;;;;;11.20;4.30;;;;;;;20.63;48.80;102224.47;5034626;28;20078;-87
2022/08/29 11:09:41;;;;;;;13.68;4.78;;;;;;;20.72;48.26;102225.50;5034733;28;20028;-87
2022/08/29 11:12:15;;;;;;;10.93;4.53;;;;;;;20.87;47.00;102217.16;5034856;28;20021;-76
2022/08/29 11:15:13;;;;;;;13.50;4.85;;;;;;;21.18;48.18;102217.19;5034723;28;20052;-75
2022/08/29 11:17:41;;;;;;;11.45;4.18;;;;;;;21.40;46.85;102216.19;5034715;28;20080;-87
2022/08/29 11:20:16;;;;;;;11.45;4.88;;;;;;;21.74;46.11;102212.28;5034596;28;20366;-88
2022/08/29 11:22:41;;;;;;;12.02;4.75;;;;;;;21.83;45.30;102215.03;5034308;28;20588;-87
2022/08/29 11:25:13;;;;;;;15.65;5.38;;;;;;;21.82;45.04;102205.47;5034374;28;20082;-86
2022/08/29 11:27:47;;;;;;;11.68;4.18;;;;;;;21.80;45.39;102203.00;5034398;28;20433;-88
2022/08/29 11:30:21;;;;;;;12.32;4.40;;;;;;;21.65;45.93;102193.84;5034389;28;20032;-83
2022/08/29 11:33:06;;;;;;;13.50;4.53;;;;;;;21.57;47.12;102188.44;5034188;28;20021;-85
2022/08/29 11:36:09;;;;;;;11.95;4.75;;;;;;;21.52;47.91;102194.06;5033966;28;20029;-85
2022/08/29 11:38:58;;;;;;;9.48;4.32;;;;;;;21.21;46.96;102198.50;5033292;28;20056;-88
2022/08/29 11:41:36;;;;;;;13.00;4.57;;;;;;;20.83;48.85;102179.00;5034019;28;20026;-87
2022/08/29 11:44:13;;;;;;;11.23;4.80;;;;;;;20.68;48.99;102188.19;5033835;28;20033;-88
2022/08/29 11:46:42;;;;;;;10.73;4.80;;;;;;;20.43;49.59;102172.81;5034077;28;20029;-89
2022/08/29 11:49:24;;;;;;;12.85;4.40;;;;;;;20.23;49.24;102163.94;5043465;28;20041;-87
2022/08/29 11:51:57;;;;;;;10.88;4.55;;;;;;;20.22;50.07;102185.91;5053548;28;20489;-88